createdAt,value
2019-01-17T00:00:27.634Z,8.87
2019-01-17T00:03:29.833Z,9.40
2019-01-17T00:06:18.168Z,9.90
2019-01-17T00:09:06.521Z,9.87
2019-01-17T00:12:02.080Z,13.20
2019-01-17T00:14:50.169Z,11.20
2019-01-17T00:17:47.924Z,11.27
2019-01-17T00:20:35.966Z,7.93
2019-01-17T00:23:28.495Z,13.63
2019-01-17T00:26:36.529Z,10.60
2019-01-17T00:29:24.485Z,11.03
2019-01-17T00:32:18.675Z,11.60
2019-01-17T00:35:06.830Z,14.20
2019-01-17T00:37:53.781Z,9.00
2019-01-17T00:40:49.430Z,8.67
2019-01-17T00:43:37.772Z,10.53
2019-01-17T00:46:25.956Z,9.27
2019-01-17T00:49:07.467Z,8.60
2019-01-17T00:51:48.476Z,10.87
2019-01-17T00:54:53.122Z,13.43
2019-01-17T00:57:38.856Z,11.00
2019-01-17T01:00:30.862Z,9.10
2019-01-17T01:03:26.221Z,9.30
2019-01-17T01:06:28.085Z,11.10
2019-01-17T01:09:23.026Z,13.77
2019-01-17T01:12:12.532Z,10.70
2019-01-17T01:14:59.051Z,10.87
2019-01-17T01:17:36.310Z,18.97
2019-01-17T01:20:34.717Z,12.67
2019-01-17T01:23:24.566Z,8.47
2019-01-17T01:26:14.057Z,14.63
2019-01-17T01:29:09.373Z,13.30
2019-01-17T01:32:08.065Z,13.93
2019-01-17T01:35:09.330Z,13.63
2019-01-17T01:37:57.737Z,11.57
2019-01-17T01:40:47.317Z,11.97
2019-01-17T01:43:45.668Z,11.37
2019-01-17T01:46:38.252Z,11.77
2019-01-17T01:49:29.089Z,11.33
2019-01-17T01:52:06.771Z,10.90
2019-01-17T01:54:37.218Z,11.47
2019-01-17T01:57:08.040Z,13.97
2019-01-17T01:59:38.494Z,11.97
2019-01-17T02:02:08.957Z,13.67
2019-01-17T02:04:39.412Z,12.90
2019-01-17T02:07:09.941Z,14.63
2019-01-17T02:09:40.391Z,14.60
2019-01-17T02:12:10.908Z,15.63
2019-01-17T02:14:41.473Z,13.83
2019-01-17T02:17:12.686Z,14.37
2019-01-17T02:19:43.125Z,14.90
2019-01-17T02:22:13.630Z,15.10
2019-01-17T02:24:44.158Z,14.63
2019-01-17T02:27:14.621Z,19.77
2019-01-17T02:29:45.071Z,12.87
2019-01-17T02:32:15.529Z,12.43
2019-01-17T02:34:46.073Z,13.33
2019-01-17T02:37:16.521Z,12.90
2019-01-17T02:39:47.526Z,13.73
2019-01-17T02:42:18.096Z,13.13
2019-01-17T02:44:48.590Z,11.10
2019-01-17T02:47:19.119Z,15.53
2019-01-17T02:49:49.649Z,14.40
2019-01-17T02:52:20.169Z,16.60
2019-01-17T02:54:50.645Z,12.20
2019-01-17T02:57:21.208Z,11.67
2019-01-17T02:59:51.778Z,14.10
2019-01-17T03:02:22.249Z,16.23
2019-01-17T03:04:52.750Z,13.43
2019-01-17T03:07:23.266Z,12.40
2019-01-17T03:10:14.262Z,13.83
2019-01-17T03:12:44.716Z,15.47
2019-01-17T03:15:15.175Z,17.03
2019-01-17T03:17:45.817Z,9.93
2019-01-17T03:20:16.269Z,12.30
2019-01-17T03:22:46.699Z,14.57
2019-01-17T03:25:17.141Z,11.03
2019-01-17T03:27:48.722Z,9.90
2019-01-17T03:30:19.704Z,10.13
2019-01-17T03:32:50.434Z,12.13
2019-01-17T03:35:20.881Z,10.10
2019-01-17T03:37:51.471Z,11.03
2019-01-17T03:40:21.932Z,11.87
2019-01-17T03:42:52.420Z,12.93
2019-01-17T03:45:22.894Z,14.40
2019-01-17T03:47:53.398Z,10.53
2019-01-17T03:50:23.874Z,9.50
2019-01-17T03:52:54.341Z,9.27
2019-01-17T03:55:25.299Z,11.20
2019-01-17T03:57:56.088Z,10.63
2019-01-17T04:00:26.545Z,12.80
2019-01-17T04:02:57.013Z,9.40
2019-01-17T04:05:27.548Z,10.03
2019-01-17T04:07:58.014Z,11.20
2019-01-17T04:10:28.461Z,10.87
2019-01-17T04:12:58.985Z,8.80
2019-01-17T04:15:29.449Z,9.47
2019-01-17T04:18:00.017Z,9.83
2019-01-17T04:20:30.522Z,7.80
2019-01-17T04:23:01.356Z,9.87
2019-01-17T04:25:32.525Z,8.63
2019-01-17T04:28:03.187Z,11.47
2019-01-17T04:30:34.027Z,9.67
2019-01-17T04:33:04.548Z,9.10
2019-01-17T04:35:35.045Z,9.60
2019-01-17T04:38:05.782Z,7.97
2019-01-17T04:40:36.233Z,9.37
2019-01-17T04:43:06.733Z,8.33
2019-01-17T04:45:37.229Z,8.80
2019-01-17T04:48:07.808Z,7.07
2019-01-17T04:50:38.632Z,8.00
2019-01-17T04:53:09.157Z,10.57
2019-01-17T04:55:39.736Z,7.93
2019-01-17T04:58:10.231Z,10.77
2019-01-17T05:00:40.780Z,7.67
2019-01-17T05:03:11.281Z,10.23
2019-01-17T05:05:41.717Z,7.27
2019-01-17T05:08:12.174Z,7.60
2019-01-17T05:10:42.745Z,9.53
2019-01-17T05:13:13.233Z,8.67
2019-01-17T05:15:43.764Z,7.50
2019-01-17T05:18:14.301Z,5.80
2019-01-17T05:20:44.829Z,7.70
2019-01-17T05:23:15.477Z,7.90
2019-01-17T05:25:45.944Z,8.23
2019-01-17T05:28:16.472Z,8.73
2019-01-17T05:30:47.286Z,7.33
2019-01-17T05:33:17.837Z,6.20
2019-01-17T05:35:49.573Z,6.08
2019-01-17T05:38:21.621Z,8.63
2019-01-17T05:40:52.132Z,8.20
2019-01-17T05:43:23.581Z,7.67
2019-01-17T05:45:54.144Z,5.80
2019-01-17T05:48:26.019Z,6.27
2019-01-17T05:50:56.609Z,6.90
2019-01-17T05:53:27.084Z,6.40
2019-01-17T05:55:57.538Z,6.83
2019-01-17T05:58:28.057Z,9.10
2019-01-17T06:00:58.522Z,6.17
2019-01-17T06:03:29.117Z,6.60
2019-01-17T06:05:59.978Z,7.30
2019-01-17T06:09:10.867Z,5.90
2019-01-17T06:11:43.380Z,4.60
2019-01-17T06:14:13.860Z,7.23
2019-01-17T06:16:44.306Z,6.07
2019-01-17T06:21:58.687Z,5.87
2019-01-17T06:24:29.124Z,7.63
2019-01-17T06:26:59.649Z,4.77
2019-01-17T06:29:30.108Z,6.20
2019-01-17T06:32:00.973Z,7.37
2019-01-17T06:34:31.425Z,5.53
2019-01-17T06:37:01.952Z,5.97
2019-01-17T06:39:32.718Z,5.73
2019-01-17T06:42:03.245Z,5.13
2019-01-17T06:44:33.697Z,5.87
2019-01-17T06:47:04.290Z,7.20
2019-01-17T06:49:34.826Z,5.50
2019-01-17T06:52:05.378Z,5.30
2019-01-17T06:54:35.910Z,4.53
2019-01-17T06:57:06.456Z,6.03
2019-01-17T06:59:36.889Z,7.10
2019-01-17T07:02:07.434Z,6.57
2019-01-17T07:04:38.116Z,6.37
2019-01-17T07:07:08.588Z,4.07
2019-01-17T07:09:39.163Z,6.03
2019-01-17T07:12:09.861Z,7.37
2019-01-17T07:14:40.321Z,5.57
2019-01-17T07:17:10.797Z,5.87
2019-01-17T07:19:41.473Z,4.17
2019-01-17T07:22:12.301Z,6.60
2019-01-17T07:24:42.755Z,6.97
2019-01-17T07:27:13.360Z,4.70
2019-01-17T07:29:43.838Z,7.10
2019-01-17T07:32:14.369Z,5.93
2019-01-17T07:34:44.890Z,5.27
2019-01-17T07:37:15.712Z,6.87
2019-01-17T07:39:46.539Z,6.20
2019-01-17T07:42:17.041Z,4.20
2019-01-17T07:44:47.620Z,5.60
2019-01-17T07:47:18.634Z,7.07
2019-01-17T07:49:49.396Z,4.90
2019-01-17T07:52:19.886Z,7.47
2019-01-17T07:54:50.398Z,9.60
2019-01-17T07:57:20.861Z,6.33
2019-01-17T07:59:51.537Z,7.33
2019-01-17T08:02:22.013Z,7.13
2019-01-17T08:04:52.495Z,5.33
2019-01-17T08:07:22.998Z,8.23
2019-01-17T08:09:53.491Z,5.87
2019-01-17T08:12:23.977Z,7.20
2019-01-17T08:14:55.608Z,6.60
2019-01-17T08:17:26.094Z,7.27
2019-01-17T08:19:56.537Z,8.07
2019-01-17T08:22:27.035Z,7.43
2019-01-17T08:24:57.477Z,6.93
2019-01-17T08:27:27.929Z,7.47
2019-01-17T08:29:58.448Z,37.60
2019-01-17T08:32:29.049Z,9.03
2019-01-17T08:34:59.523Z,8.50
2019-01-17T08:37:30.021Z,6.97
2019-01-17T08:40:01.464Z,8.07
2019-01-17T08:42:31.916Z,10.83
2019-01-17T08:45:02.696Z,7.33
2019-01-17T08:47:33.165Z,10.00
2019-01-17T08:50:04.698Z,6.87
2019-01-17T08:52:35.148Z,7.43
2019-01-17T08:55:05.691Z,10.10
2019-01-17T08:57:36.179Z,7.83
2019-01-17T09:00:10.752Z,7.77
2019-01-17T09:02:41.246Z,10.47
2019-01-17T09:05:12.076Z,8.97
2019-01-17T09:07:43.528Z,6.00
2019-01-17T09:10:19.856Z,6.80
2019-01-17T09:12:50.485Z,6.33
2019-01-17T09:15:23.288Z,7.07
2019-01-17T09:17:53.907Z,6.30
2019-01-17T09:20:24.486Z,5.57
2019-01-17T09:22:55.108Z,7.47
2019-01-17T09:25:25.851Z,7.23
2019-01-17T09:27:56.304Z,9.93
2019-01-17T09:30:26.788Z,10.20
2019-01-17T09:32:57.318Z,7.10
2019-01-17T09:35:28.238Z,7.57
2019-01-17T09:37:58.714Z,5.83
2019-01-17T09:40:29.162Z,5.50
2019-01-17T09:42:59.676Z,6.33
2019-01-17T09:45:30.122Z,8.83
2019-01-17T09:48:02.005Z,6.77
2019-01-17T09:50:32.610Z,6.37
2019-01-17T09:53:03.032Z,5.77
2019-01-17T09:55:33.671Z,7.87
2019-01-17T09:58:04.145Z,4.97
2019-01-17T10:00:34.790Z,4.80
2019-01-17T10:03:05.228Z,7.20
2019-01-17T10:05:35.794Z,7.13
2019-01-17T10:08:06.302Z,6.93
2019-01-17T10:10:36.793Z,4.87
2019-01-17T10:13:07.393Z,5.50
2019-01-17T10:15:48.700Z,5.13
2019-01-17T10:18:54.803Z,6.40
2019-01-17T10:21:50.879Z,8.47
2019-01-17T10:25:03.016Z,6.20
2019-01-17T10:28:10.197Z,5.60
2019-01-17T10:31:05.082Z,8.03
2019-01-17T10:34:02.947Z,5.83
2019-01-17T10:37:01.314Z,8.10
2019-01-17T10:40:05.226Z,5.60
2019-01-17T10:43:13.766Z,5.93
2019-01-17T10:46:27.801Z,7.20
2019-01-17T10:49:37.951Z,6.00
2019-01-17T10:52:31.090Z,8.47
2019-01-17T10:55:28.796Z,9.77
2019-01-17T10:58:49.624Z,7.50
2019-01-17T11:01:47.836Z,7.13
2019-01-17T11:04:51.430Z,9.57
2019-01-17T11:07:35.827Z,7.13
2019-01-17T11:10:35.694Z,5.60
2019-01-17T11:14:02.113Z,6.53
2019-01-17T11:17:03.000Z,7.50
2019-01-17T11:20:30.027Z,6.20
2019-01-17T11:23:36.675Z,6.97
2019-01-17T11:26:19.478Z,6.57
2019-01-17T11:29:13.928Z,8.30
2019-01-17T11:32:34.969Z,7.93
2019-01-17T11:35:52.494Z,8.67
2019-01-17T11:38:48.582Z,6.90
2019-01-17T11:42:18.282Z,8.20
2019-01-17T11:45:19.874Z,6.73
2019-01-17T11:48:34.479Z,7.53
2019-01-17T11:51:33.145Z,7.10
2019-01-17T11:54:14.374Z,10.10
2019-01-17T11:57:22.635Z,8.03
2019-01-17T12:00:32.518Z,6.77
2019-01-17T12:03:31.229Z,6.63
2019-01-17T12:06:01.665Z,8.80
2019-01-17T12:08:32.159Z,7.23
2019-01-17T12:11:02.648Z,5.07
2019-01-17T12:13:33.727Z,5.80
2019-01-17T12:16:07.131Z,6.83
2019-01-17T12:18:37.718Z,6.13
2019-01-17T12:21:12.737Z,6.17
2019-01-17T12:23:44.843Z,5.77
2019-01-17T12:26:21.319Z,8.83
2019-01-17T12:31:55.243Z,5.37
2019-01-17T12:34:25.872Z,5.07
2019-01-17T12:37:00.519Z,5.10
2019-01-17T12:39:31.018Z,5.30
2019-01-17T12:42:07.010Z,4.33
2019-01-17T12:44:47.778Z,6.07
2019-01-17T12:47:19.797Z,6.47
2019-01-17T12:49:51.258Z,5.57
2019-01-17T12:52:25.844Z,4.03
2019-01-17T12:54:56.372Z,5.50
2019-01-17T12:57:28.092Z,4.07
2019-01-17T12:59:58.593Z,5.37
2019-01-17T13:02:29.103Z,8.13
2019-01-17T13:04:59.563Z,3.73
2019-01-17T13:07:30.133Z,2.33
2019-01-17T13:10:00.614Z,2.63
2019-01-17T13:12:31.158Z,1.57
2019-01-17T13:15:01.648Z,1.43
2019-01-17T13:17:32.206Z,1.83
2019-01-17T13:20:02.856Z,2.43
2019-01-17T13:22:33.770Z,3.50
2019-01-17T13:25:04.952Z,1.57
2019-01-17T13:27:35.537Z,1.30
2019-01-17T13:30:09.910Z,2.70
2019-01-17T13:32:40.376Z,2.37
2019-01-17T13:35:10.937Z,1.10
2019-01-17T13:37:41.508Z,0.80
2019-01-17T13:40:15.601Z,1.10
2019-01-17T13:42:46.329Z,1.33
2019-01-17T13:45:18.372Z,1.30
2019-01-17T13:47:49.080Z,2.17
2019-01-17T13:50:20.462Z,2.27
2019-01-17T13:52:51.153Z,1.93
2019-01-17T13:55:21.684Z,2.53
2019-01-17T13:57:52.185Z,2.20
2019-01-17T14:00:24.052Z,2.17
2019-01-17T14:02:54.633Z,1.10
2019-01-17T14:05:25.343Z,1.73
2019-01-17T14:07:55.789Z,1.97
2019-01-17T14:10:26.342Z,2.00
2019-01-17T14:12:57.114Z,2.67
2019-01-17T14:15:29.040Z,1.87
2019-01-17T14:17:59.575Z,1.90
2019-01-17T14:20:30.048Z,3.90
2019-01-17T14:23:00.753Z,2.43
2019-01-17T14:25:31.303Z,1.60
2019-01-17T14:28:01.772Z,1.87
2019-01-17T14:30:33.125Z,1.70
2019-01-17T14:33:04.663Z,1.60
2019-01-17T14:35:35.481Z,2.37
2019-01-17T14:38:06.906Z,2.47
2019-01-17T14:40:37.708Z,2.37
2019-01-17T14:43:08.204Z,1.13
2019-01-17T14:45:38.644Z,1.10
2019-01-17T14:48:09.138Z,1.13
2019-01-17T14:50:39.608Z,1.57
2019-01-17T14:53:10.205Z,0.77
2019-01-17T14:55:40.975Z,2.93
2019-01-17T14:58:11.495Z,1.73
2019-01-17T15:00:41.961Z,1.30
2019-01-17T15:03:12.625Z,1.80
2019-01-17T15:05:44.400Z,1.10
2019-01-17T15:08:14.898Z,2.20
2019-01-17T15:10:45.661Z,2.47
2019-01-17T15:13:16.165Z,0.90
2019-01-17T15:15:46.633Z,1.62
2019-01-17T15:18:17.607Z,1.57
2019-01-17T15:20:48.391Z,2.77
2019-01-17T15:23:18.849Z,2.17
2019-01-17T15:25:49.305Z,1.83
2019-01-17T15:28:20.126Z,1.10
2019-01-17T15:30:50.657Z,1.80
2019-01-17T15:33:21.254Z,1.57
2019-01-17T15:35:51.734Z,2.13
2019-01-17T15:38:22.610Z,1.83
2019-01-17T15:40:53.116Z,3.67
2019-01-17T15:43:23.666Z,1.57
2019-01-17T15:45:54.129Z,1.83
2019-01-17T15:48:24.618Z,2.27
2019-01-17T15:50:55.537Z,1.67
2019-01-17T15:53:26.185Z,2.20
2019-01-17T15:55:56.693Z,1.47
2019-01-17T15:58:28.150Z,1.70
2019-01-17T16:00:58.640Z,0.87
2019-01-17T16:03:29.117Z,2.20
2019-01-17T16:05:59.866Z,1.53
2019-01-17T16:08:30.364Z,3.30
2019-01-17T16:11:01.410Z,1.77
2019-01-17T16:13:31.962Z,2.17
2019-01-17T16:16:03.032Z,2.53
2019-01-17T16:18:33.495Z,2.13
2019-01-17T16:21:03.969Z,2.30
2019-01-17T16:23:35.508Z,2.07
2019-01-17T16:26:06.310Z,2.37
2019-01-17T16:28:37.485Z,2.83
2019-01-17T16:31:07.993Z,2.73
2019-01-17T16:33:38.475Z,1.57
2019-01-17T16:36:09.292Z,1.27
2019-01-17T16:38:39.779Z,3.53
2019-01-17T16:41:10.880Z,2.87
2019-01-17T16:43:41.540Z,2.23
2019-01-17T16:46:12.051Z,3.30
2019-01-17T16:48:42.532Z,1.77
2019-01-17T16:51:13.022Z,1.20
2019-01-17T16:53:43.470Z,3.50
2019-01-17T16:56:14.051Z,2.53
2019-01-17T16:58:44.562Z,3.27
2019-01-17T17:01:15.329Z,3.67
2019-01-17T17:03:45.846Z,3.37
2019-01-17T17:06:16.306Z,3.00
2019-01-17T17:08:46.800Z,4.37
2019-01-17T17:11:17.772Z,4.20
2019-01-17T17:13:48.281Z,2.70
2019-01-17T17:16:18.847Z,3.47
2019-01-17T17:18:49.344Z,5.03
2019-01-17T17:21:20.040Z,1.97
2019-01-17T17:23:51.075Z,4.10
2019-01-17T17:26:21.764Z,1.73
2019-01-17T17:28:52.298Z,3.60
2019-01-17T17:31:23.229Z,4.33
2019-01-17T17:33:54.550Z,3.10
2019-01-17T17:36:25.317Z,2.53
2019-01-17T17:38:55.786Z,2.43
2019-01-17T17:41:26.296Z,1.70
2019-01-17T17:43:57.276Z,3.10
2019-01-17T17:46:28.065Z,4.30
2019-01-17T17:48:59.002Z,2.27
2019-01-17T17:51:30.642Z,2.47
2019-01-17T17:54:02.316Z,4.23
2019-01-17T17:56:32.804Z,3.47
2019-01-17T17:59:03.781Z,2.63
2019-01-17T18:01:40.362Z,4.00
2019-01-17T18:04:11.108Z,5.43
2019-01-17T18:06:41.741Z,2.50
2019-01-17T18:09:12.396Z,3.00
2019-01-17T18:11:42.865Z,2.37
2019-01-17T18:14:13.491Z,2.27
2019-01-17T18:16:44.601Z,2.53
2019-01-17T18:19:15.204Z,5.27
2019-01-17T18:21:45.868Z,1.57
2019-01-17T18:24:16.349Z,2.40
2019-01-17T18:26:47.032Z,2.50
2019-01-17T18:29:17.537Z,2.33
2019-01-17T18:31:48.068Z,2.37
2019-01-17T18:34:18.610Z,3.23
2019-01-17T18:36:49.355Z,1.90
2019-01-17T18:39:19.853Z,4.97
2019-01-17T18:41:50.298Z,3.93
2019-01-17T18:44:20.756Z,4.97
2019-01-17T18:46:51.254Z,3.07
2019-01-17T18:49:21.915Z,6.93
2019-01-17T18:51:52.484Z,3.40
2019-01-17T18:54:22.965Z,5.93
2019-01-17T18:56:53.492Z,4.37
2019-01-17T18:59:24.243Z,2.43
2019-01-17T19:01:54.760Z,4.07
2019-01-17T19:04:25.369Z,4.10
2019-01-17T19:06:56.683Z,3.57
2019-01-17T19:09:29.032Z,3.73
2019-01-17T19:12:01.665Z,2.30
2019-01-17T19:14:43.254Z,2.60
2019-01-17T19:17:17.510Z,1.53
2019-01-17T19:19:49.580Z,3.57
2019-01-17T19:22:20.390Z,3.50
2019-01-17T19:24:50.887Z,1.97
2019-01-17T19:27:21.415Z,4.60
2019-01-17T19:29:51.903Z,3.73
2019-01-17T19:32:22.490Z,2.87
2019-01-17T19:34:53.347Z,3.27
2019-01-17T19:37:23.912Z,3.23
2019-01-17T19:39:54.442Z,3.33
2019-01-17T19:42:25.131Z,2.10
2019-01-17T19:44:55.724Z,2.10
2019-01-17T19:47:26.260Z,1.77
2019-01-17T19:49:56.860Z,2.40
2019-01-17T19:52:34.439Z,6.33
2019-01-17T19:55:05.209Z,2.37
2019-01-17T19:57:35.710Z,1.70
2019-01-17T20:00:08.943Z,1.87
2019-01-17T20:02:39.505Z,3.97
2019-01-17T20:05:11.470Z,4.37
2019-01-17T20:07:42.001Z,3.53
2019-01-17T20:10:33.913Z,3.10
2019-01-17T20:13:05.185Z,1.60
2019-01-17T20:15:36.805Z,3.03
2019-01-17T20:18:08.268Z,2.83
2019-01-17T20:20:38.898Z,2.60
2019-01-17T20:23:09.357Z,3.17
2019-01-17T20:25:54.032Z,4.80
2019-01-17T20:28:24.624Z,2.27
2019-01-17T20:30:55.281Z,2.17
2019-01-17T20:33:25.994Z,3.00
2019-01-17T20:35:56.533Z,4.53
2019-01-17T20:38:28.093Z,2.57
2019-01-17T20:40:59.050Z,4.50
2019-01-17T20:43:30.819Z,6.30
2019-01-17T20:46:01.805Z,3.80
2019-01-17T20:48:39.789Z,1.80
2019-01-17T20:51:11.160Z,3.23
2019-01-17T20:53:41.697Z,2.27
2019-01-17T20:56:15.361Z,1.60
2019-01-17T20:58:50.248Z,3.77
2019-01-17T21:01:47.578Z,1.63
2019-01-17T21:04:18.078Z,3.77
2019-01-17T21:07:05.827Z,5.43
2019-01-17T21:09:39.537Z,2.67
2019-01-17T21:12:10.083Z,2.43
2019-01-17T21:14:40.540Z,1.43
2019-01-17T21:17:11.032Z,1.70
2019-01-17T21:19:41.880Z,2.00
2019-01-17T21:22:12.420Z,3.27
2019-01-17T21:24:43.129Z,4.00
2019-01-17T21:27:14.093Z,2.30
2019-01-17T21:29:44.650Z,3.37
2019-01-17T21:32:15.447Z,1.73
2019-01-17T21:34:46.058Z,2.93
2019-01-17T21:37:20.310Z,5.53
2019-01-17T21:39:50.794Z,3.40
2019-01-17T21:42:21.461Z,2.50
2019-01-17T21:44:51.938Z,1.87
2019-01-17T21:47:22.569Z,3.27
2019-01-17T21:49:53.197Z,4.00
2019-01-17T21:52:23.983Z,3.87
2019-01-17T21:54:54.422Z,3.93
2019-01-17T21:57:25.316Z,3.80
2019-01-17T21:59:56.242Z,3.67
2019-01-17T22:02:26.765Z,2.63
2019-01-17T22:04:57.487Z,6.27
2019-01-17T22:07:29.574Z,2.80
2019-01-17T22:10:01.700Z,3.07
2019-01-17T22:12:32.819Z,2.73
2019-01-17T22:15:03.594Z,3.33
2019-01-17T22:17:34.190Z,4.17
2019-01-17T22:20:05.457Z,2.33
2019-01-17T22:22:35.924Z,4.17
2019-01-17T22:25:08.399Z,2.63
2019-01-17T22:27:38.901Z,3.27
2019-01-17T22:30:14.020Z,5.60
2019-01-17T22:32:44.476Z,3.83
2019-01-17T22:35:14.956Z,4.23
2019-01-17T22:37:45.647Z,4.13
2019-01-17T22:40:16.312Z,5.67
2019-01-17T22:42:46.766Z,3.90
2019-01-17T22:45:22.871Z,1.50
2019-01-17T22:47:53.716Z,2.77
2019-01-17T22:50:24.256Z,4.70
2019-01-17T22:52:54.759Z,2.53
2019-01-17T22:55:25.295Z,1.73
2019-01-17T22:57:55.887Z,1.93
2019-01-17T23:00:49.582Z,2.93
2019-01-17T23:03:31.893Z,4.93
2019-01-17T23:06:04.498Z,3.97
2019-01-17T23:08:34.982Z,1.73
2019-01-17T23:11:05.645Z,2.43
2019-01-17T23:13:36.194Z,5.63
2019-01-17T23:16:07.605Z,1.80
2019-01-17T23:18:38.208Z,3.23
2019-01-17T23:21:09.051Z,5.30
2019-01-17T23:23:39.600Z,2.10
2019-01-17T23:26:10.269Z,2.43
2019-01-17T23:28:40.717Z,3.33
2019-01-17T23:31:11.180Z,3.10
2019-01-17T23:33:41.658Z,3.33
2019-01-17T23:36:12.185Z,5.27
2019-01-17T23:38:42.708Z,3.67
2019-01-17T23:41:13.213Z,2.47
2019-01-17T23:43:43.657Z,3.03
2019-01-17T23:46:14.131Z,2.23
2019-01-17T23:48:44.649Z,2.40
2019-01-17T23:51:15.112Z,5.13
2019-01-17T23:53:45.872Z,5.77
2019-01-17T23:56:16.374Z,3.77
2019-01-17T23:58:46.868Z,4.07
